Ogallala, NE (69153)

5:21 AM MST on February 22, 2017 (GMT -0700)
KNEOGALL1 | | Change Station

Elev 3243 ft 41.13 °N, 101.71 °W | Updated 1 minute ago

Clear
Clear
41.6 °F
Feels Like 42 °F
N
0.0
Wind Variable Wind from WSW

Today
High -- | Low -- °F
--% Chance of Precip.
Yesterday
High -- | Low -- °F
Precip. -- in
Pressure 29.83 in
Visibility 10.0 miles
Clouds Clear
Windchill 42 °F
Dew Point 32 °F
Humidity 68%
Rainfall 0.00 in
Snow Depth Not available.
6:31 AM 5:29 PM
Waning Crescent, 17% visible
METAR KOGA 221215Z AUTO 25003KT 10SM CLR 04/00 A2983 RMK AO2 T00370000
Pressure 29.83 in
Visibility 10.0 miles
Clouds Clear
Windchill 42 °F
Dew Point 32 °F
Humidity 68%
Rainfall 0.00 in
Snow Depth Not available.
6:31 AM 5:29 PM
Waning Crescent, 17% visible
METAR KOGA 221215Z AUTO 25003KT 10SM CLR 04/00 A2983 RMK AO2 T00370000

Get Your Daily Forecast Email!

Thanks for signing up!

Be on the lookout for a verification email in your inbox.

You'll start receiving the daily forecast at 8 AM.

×

10-Day Weather Forecast

Almanac

Astronomy

Feb. 22, 2017 Rise Set
Actual Time
Civil Twilight
Nautical Twilight
Astronomical Twilight
Moon
Length of Visible Light
Length of Day
Tomorrow will be .
, % of the Moon is Illuminated

Today's Extremes

State Highs State Lows

Community

WunderPhotos

Upload Photos

1,962,540 photos uploaded!

WunderBlog® & News

Nearby

Air Quality

  Air Quality AQ Index Pollutant
Not available.

Snow Depth

Station Depth Elevation

Earthquake Activity

City Distance Mag. Time & Date
Minimum magnitude displayed is 2.5.

Coastal Water Temperatures

Place Temperature

Stations

Nearby Weather Stations

Station Location Temp. Windchill Dew Point Humidity Wind Precip. Elev Updated Type
                   

Watches & Warnings

There are currently no watches in effect.